Time;durP1;ratioP1;P1;durP2;ratioP2;P2;SDS_P1;SDS_P2;PMS_P1;PMS_P2;Temp;Humidity;BMP_temperature;BMP_pressure;BME280_temperature;BME280_humidity;BME280_pressure;Samples;Min_cycle;Max_cycle;Signal;HPM_P1;HPM_P2
2023/06/05 00:01:40;;;;;;;3.00;0.70;;;;;;;28.15;17.28;101093.78;5024823;28;20658;-74
2023/06/05 00:04:09;;;;;;;4.15;0.73;;;;;;;28.16;17.56;101090.19;5026337;28;20490;-71
2023/06/05 00:06:39;;;;;;;1.77;0.70;;;;;;;28.14;17.94;101089.38;5019870;28;20494;-72
2023/06/05 00:09:08;;;;;;;1.38;0.80;;;;;;;28.14;18.86;101097.34;5021440;28;20041;-70
2023/06/05 00:11:36;;;;;;;1.85;1.05;;;;;;;28.12;19.19;101093.88;5021911;28;20053;-73
2023/06/05 00:14:05;;;;;;;2.50;0.80;;;;;;;27.98;17.96;101074.94;5017066;28;20042;-72
2023/06/05 00:16:35;;;;;;;1.95;0.70;;;;;;;28.00;17.61;101083.72;5027345;28;20049;-74
2023/06/05 00:19:03;;;;;;;1.23;0.70;;;;;;;27.97;17.62;101074.06;5014199;28;20066;-71
2023/06/05 00:21:37;;;;;;;4.85;0.70;;;;;;;27.92;17.25;101081.38;5004714;28;20108;-70
2023/06/05 00:24:10;;;;;;;1.45;0.70;;;;;;;27.88;17.67;101081.53;5004048;28;20149;-71
2023/06/05 00:26:41;;;;;;;1.90;0.80;;;;;;;27.81;17.91;101075.56;5004553;28;20057;-71
2023/06/05 00:29:10;;;;;;;1.45;0.70;;;;;;;27.70;17.98;101056.47;5004027;28;20049;-70
2023/06/05 00:31:38;;;;;;;1.85;0.82;;;;;;;27.68;20.03;101061.81;5007487;28;20142;-72
2023/06/05 00:34:06;;;;;;;1.80;0.80;;;;;;;27.71;19.82;101059.03;5025468;28;20119;-71
2023/06/05 00:36:36;;;;;;;1.38;0.60;;;;;;;27.72;19.41;101063.47;5023579;28;20466;-71
2023/06/05 00:39:09;;;;;;;1.35;0.73;;;;;;;27.70;18.88;101048.50;5017315;28;20046;-70
2023/06/05 00:41:41;;;;;;;1.60;0.70;;;;;;;27.66;18.30;101053.03;5020111;28;20049;-70
2023/06/05 00:44:10;;;;;;;1.63;0.80;;;;;;;27.62;18.79;101051.41;5026404;28;20081;-71
2023/06/05 00:46:41;;;;;;;2.17;0.82;;;;;;;27.56;17.26;101052.53;5020229;28;20038;-71
2023/06/05 00:49:10;;;;;;;2.38;0.93;;;;;;;27.55;17.50;101045.44;5019293;28;20109;-70
2023/06/05 00:51:39;;;;;;;1.23;0.70;;;;;;;27.53;16.88;101041.13;5024578;28;20053;-70
2023/06/05 00:54:10;;;;;;;3.80;0.80;;;;;;;27.47;17.10;101036.91;5018955;28;20487;-73
2023/06/05 00:56:39;;;;;;;1.35;0.60;;;;;;;27.45;17.67;101035.25;5025709;28;20053;-73
2023/06/05 00:59:13;;;;;;;2.15;0.80;;;;;;;27.47;16.63;101036.06;5018358;28;20046;-69
2023/06/05 01:01:43;;;;;;;4.40;1.00;;;;;;;27.48;17.48;101037.78;5023872;28;20053;-70
2023/06/05 01:04:12;;;;;;;1.35;0.70;;;;;;;27.45;17.54;101035.25;5025291;28;20049;-71
2023/06/05 01:06:42;;;;;;;1.30;0.60;;;;;;;27.30;17.77;101033.97;5021509;28;20049;-71
2023/06/05 01:09:13;;;;;;;1.52;0.70;;;;;;;27.16;17.50;101022.03;5014438;28;20057;-70
2023/06/05 01:11:48;;;;;;;2.55;0.50;;;;;;;27.11;18.02;101039.06;5017090;28;20053;-71
2023/06/05 01:14:22;;;;;;;2.08;0.90;;;;;;;27.06;17.15;101035.69;5020337;28;20671;-71
2023/06/05 01:16:53;;;;;;;3.38;0.85;;;;;;;27.00;17.57;101031.44;5021442;28;20060;-72
2023/06/05 01:19:24;;;;;;;3.77;0.60;;;;;;;26.91;17.15;101032.63;5001446;28;20086;-73
2023/06/05 01:21:53;;;;;;;4.35;1.05;;;;;;;26.83;17.34;101041.78;4999303;28;20050;-71
2023/06/05 01:24:25;;;;;;;2.38;0.75;;;;;;;26.74;18.03;101024.38;5002184;28;20050;-70
2023/06/05 01:27:04;;;;;;;2.22;0.70;;;;;;;26.70;16.57;101033.38;4999557;28;20066;-72
2023/06/05 01:29:39;;;;;;;4.30;0.93;;;;;;;26.69;17.73;101023.69;5000794;28;20166;-70
2023/06/05 01:32:15;;;;;;;5.00;1.10;;;;;;;26.66;17.22;101019.34;5004633;28;20593;-72
2023/06/05 01:34:48;;;;;;;1.33;0.73;;;;;;;26.64;18.33;101017.63;4999925;28;20509;-70
2023/06/05 01:37:18;;;;;;;3.35;0.60;;;;;;;26.59;18.36;101020.44;5006350;28;20451;-71
2023/06/05 01:39:49;;;;;;;2.13;0.77;;;;;;;26.54;18.41;101020.59;5007641;28;20042;-71
2023/06/05 01:42:19;;;;;;;1.50;0.90;;;;;;;26.52;19.06;101017.06;5024935;28;20100;-71
2023/06/05 01:44:48;;;;;;;1.23;0.52;;;;;;;26.50;20.06;101021.59;5024430;28;20628;-72
2023/06/05 01:47:17;;;;;;;2.55;0.70;;;;;;;26.42;19.96;101028.94;5029939;28;20049;-72
2023/06/05 01:49:45;;;;;;;2.70;0.73;;;;;;;26.35;19.83;101027.38;5027045;28;20049;-73
2023/06/05 01:52:14;;;;;;;2.88;0.80;;;;;;;26.25;20.29;101031.22;5027535;28;20503;-70
2023/06/05 01:54:46;;;;;;;3.72;0.68;;;;;;;26.10;18.81;101024.63;5028266;28;20112;-70
2023/06/05 01:57:17;;;;;;;2.70;0.87;;;;;;;25.95;19.20;101023.31;5029375;28;20517;-71
2023/06/05 01:59:46;;;;;;;3.50;0.90;;;;;;;25.89;21.42;101029.66;5029927;28;20642;-70
2023/06/05 02:02:16;;;;;;;1.42;0.70;;;;;;;25.86;19.02;101023.53;5029372;28;20060;-71
2023/06/05 02:04:46;;;;;;;3.80;0.88;;;;;;;25.82;19.03;101027.22;5027088;28;20084;-69
2023/06/05 02:07:15;;;;;;;1.77;0.70;;;;;;;25.76;18.85;101030.03;5026010;28;20057;-71
2023/06/05 02:09:44;;;;;;;5.30;1.02;;;;;;;25.68;18.34;101019.69;5029584;28;20049;-72
2023/06/05 02:12:15;;;;;;;1.15;0.70;;;;;;;25.59;19.57;101025.25;5024831;28;20050;-71
2023/06/05 02:14:48;;;;;;;1.88;0.90;;;;;;;25.55;18.70;101027.09;5028545;28;20050;-71
2023/06/05 02:17:17;;;;;;;3.05;0.60;;;;;;;25.50;19.39;101026.38;5028192;28;20092;-71
2023/06/05 02:19:45;;;;;;;2.30;0.80;;;;;;;25.45;19.79;101025.63;5026314;28;20111;-72
2023/06/05 02:22:16;;;;;;;2.22;0.80;;;;;;;25.39;19.72;101031.09;5023725;28;20056;-72
2023/06/05 02:24:47;;;;;;;2.60;0.88;;;;;;;25.31;20.86;101025.13;5028722;28;20045;-72
2023/06/05 02:27:16;;;;;;;3.45;0.93;;;;;;;25.21;20.29;101027.16;5027248;28;20061;-71
2023/06/05 02:29:46;;;;;;;3.70;0.80;;;;;;;25.11;21.25;101023.88;5024493;28;20071;-72
2023/06/05 02:32:15;;;;;;;1.73;0.60;;;;;;;25.04;22.00;101038.19;5026607;28;20077;-71
2023/06/05 02:34:47;;;;;;;2.65;0.90;;;;;;;25.00;21.58;101037.38;5026028;28;20070;-72
2023/06/05 02:37:15;;;;;;;;;;;;;;;24.97;21.85;101032.16;5028508;28;20052;-73
2023/06/05 02:39:44;;;;;;;1.13;0.70;;;;;;;24.91;21.60;101034.97;5025210;28;19924;-74
2023/06/05 02:42:12;;;;;;;2.83;0.77;;;;;;;24.83;21.70;101029.00;5027712;28;20069;-72
2023/06/05 02:44:41;;;;;;;2.30;0.70;;;;;;;24.74;21.19;101040.69;5024266;28;20734;-73
2023/06/05 02:47:13;;;;;;;1.48;0.52;;;;;;;24.66;22.48;101043.50;5021968;28;20081;-73
2023/06/05 02:49:42;;;;;;;3.28;0.95;;;;;;;24.57;21.38;101032.28;5026173;28;20049;-73
2023/06/05 02:52:10;;;;;;;2.42;0.85;;;;;;;24.49;21.09;101040.41;5019255;28;20130;-71
2023/06/05 02:54:40;;;;;;;0.88;0.45;;;;;;;24.40;21.00;101033.53;5023525;28;20045;-72
2023/06/05 02:57:10;;;;;;;3.33;0.68;;;;;;;24.34;21.20;101040.75;5024402;28;20053;-71
2023/06/05 02:59:39;;;;;;;2.65;0.68;;;;;;;24.27;21.64;101033.84;5026483;28;20064;-71
2023/06/05 03:02:07;;;;;;;3.17;0.60;;;;;;;24.18;21.11;101034.94;5026494;28;20046;-69
2023/06/05 03:04:39;;;;;;;2.45;0.82;;;;;;;24.10;20.50;101037.75;5028328;28;20053;-69
2023/06/05 03:07:09;;;;;;;1.43;0.70;;;;;;;24.00;20.64;101034.41;5029973;28;20045;-69
2023/06/05 03:09:40;;;;;;;3.92;0.85;;;;;;;23.91;21.44;101039.03;5027112;28;20045;-69
2023/06/05 03:12:09;;;;;;;3.72;0.80;;;;;;;23.81;22.05;101035.72;5019950;28;20107;-70
2023/06/05 03:14:38;;;;;;;1.10;0.60;;;;;;;23.72;22.09;101031.47;5023931;28;20049;-69
2023/06/05 03:17:07;;;;;;;4.70;0.80;;;;;;;23.63;22.22;101037.81;5025788;28;20057;-69
2023/06/05 03:19:38;;;;;;;3.88;0.82;;;;;;;23.42;21.80;101023.25;5025868;28;20843;-67
2023/06/05 03:22:06;;;;;;;2.22;0.70;;;;;;;23.39;24.03;101038.31;5025493;28;20052;-68
2023/06/05 03:24:37;;;;;;;1.15;0.73;;;;;;;23.24;22.65;101034.16;5027266;28;20042;-68
2023/06/05 03:27:06;;;;;;;2.95;0.70;;;;;;;23.13;22.37;101037.00;5025465;28;20061;-68
2023/06/05 03:29:35;;;;;;;2.78;0.80;;;;;;;23.04;23.41;101055.63;5026640;28;20660;-68
2023/06/05 03:32:06;;;;;;;1.30;0.60;;;;;;;22.94;23.89;101056.66;5026433;28;20038;-68
2023/06/05 03:34:36;;;;;;;4.63;0.90;;;;;;;22.83;24.78;101059.47;5025977;28;20049;-68
2023/06/05 03:37:06;;;;;;;2.17;0.73;;;;;;;22.76;26.57;101068.38;5024230;28;20088;-68
2023/06/05 03:39:35;;;;;;;4.68;0.85;;;;;;;22.65;27.87;101071.19;5026534;28;20510;-66
2023/06/05 03:42:03;;;;;;;3.40;0.77;;;;;;;22.53;29.11;101076.66;5024396;28;20140;-67
2023/06/05 03:44:32;;;;;;;9.32;1.48;;;;;;;22.34;28.89;101076.94;5027592;28;20045;-67
2023/06/05 03:47:00;;;;;;;2.78;1.05;;;;;;;22.22;29.71;101077.09;5023393;28;20557;-67
2023/06/05 03:49:29;;;;;;;3.80;0.90;;;;;;;22.08;29.61;101076.34;5017784;28;20186;-66
2023/06/05 03:52:01;;;;;;;2.88;0.82;;;;;;;21.98;31.64;101067.72;5019313;28;20153;-67
2023/06/05 03:54:32;;;;;;;1.95;0.80;;;;;;;21.90;31.20;101081.00;5016075;28;20058;-67
2023/06/05 03:57:02;;;;;;;7.05;1.23;;;;;;;21.81;31.25;101081.09;5017566;28;20041;-68
2023/06/05 03:59:30;;;;;;;2.38;0.80;;;;;;;21.71;31.84;101069.78;5028322;28;20046;-67
2023/06/05 04:01:59;;;;;;;5.38;1.08;;;;;;;21.63;31.17;101083.94;5019699;28;20037;-67
2023/06/05 04:04:27;;;;;;;3.55;0.70;;;;;;;21.54;32.43;101087.53;5025672;28;20052;-67
2023/06/05 04:06:57;;;;;;;2.60;0.88;;;;;;;21.48;32.32;101083.19;5027065;28;20052;-67
2023/06/05 04:09:25;;;;;;;7.60;1.02;;;;;;;21.40;33.11;101098.22;5024404;28;20049;-68
2023/06/05 04:11:55;;;;;;;4.18;0.80;;;;;;;21.31;32.40;101085.97;5016757;28;20148;-67
2023/06/05 04:14:24;;;;;;;2.30;0.93;;;;;;;21.24;32.73;101088.69;5017735;28;20045;-67
2023/06/05 04:16:52;;;;;;;1.50;0.77;;;;;;;21.16;34.13;101093.13;5023527;28;20080;-68
2023/06/05 04:19:21;;;;;;;2.78;0.70;;;;;;;21.07;33.37;101088.81;5026558;28;20434;-67
2023/06/05 04:21:51;;;;;;;1.35;0.38;;;;;;;20.91;34.59;101102.13;5022101;28;20046;-67
2023/06/05 04:24:19;;;;;;;3.90;0.90;;;;;;;20.78;34.29;101105.72;5021117;28;20518;-67
2023/06/05 04:26:49;;;;;;;1.75;0.60;;;;;;;20.69;34.22;101104.03;5025323;28;20487;-68
2023/06/05 04:29:19;;;;;;;3.30;0.68;;;;;;;20.55;34.27;101107.56;5024349;28;20140;-70
2023/06/05 04:31:49;;;;;;;2.97;0.60;;;;;;;20.42;34.39;101101.53;5024654;28;20041;-70
2023/06/05 04:34:18;;;;;;;2.90;0.77;;;;;;;20.35;35.59;101107.69;5021288;28;20053;-70
2023/06/05 04:36:49;;;;;;;1.27;0.55;;;;;;;20.20;35.91;101104.28;5022752;28;20084;-69
2023/06/05 04:39:18;;;;;;;2.53;1.17;;;;;;;20.09;35.77;101111.34;5026588;28;20673;-68
2023/06/05 04:41:47;;;;;;;4.80;0.88;;;;;;;20.03;35.77;101109.59;5024555;28;20132;-69
2023/06/05 04:44:16;;;;;;;3.70;0.80;;;;;;;19.96;36.45;101107.00;5025611;28;20530;-68
2023/06/05 04:46:46;;;;;;;3.30;1.05;;;;;;;19.84;36.17;101111.41;5017049;28;20163;-69
2023/06/05 04:49:16;;;;;;;3.03;0.98;;;;;;;19.71;36.51;101104.44;5024491;28;20046;-68
2023/06/05 04:51:47;;;;;;;2.60;0.95;;;;;;;19.60;35.63;101116.69;5026769;28;20060;-69
2023/06/05 04:54:15;;;;;;;3.83;0.95;;;;;;;19.48;36.72;101114.09;5021115;28;20675;-69
2023/06/05 04:56:45;;;;;;;0.90;0.50;;;;;;;19.37;35.96;101117.59;5026069;28;20149;-68
2023/06/05 04:59:14;;;;;;;2.50;0.40;;;;;;;19.30;35.92;101115.84;5020205;28;20042;-68
2023/06/05 05:01:43;;;;;;;3.47;0.68;;;;;;;19.21;35.74;101113.22;5023652;28;20503;-69
2023/06/05 05:04:14;;;;;;;4.30;0.90;;;;;;;19.11;36.83;101122.84;5025543;28;20038;-70
2023/06/05 05:06:47;;;;;;;2.00;0.40;;;;;;;19.00;37.81;101122.84;5018020;28;20061;-69
2023/06/05 05:09:16;;;;;;;2.17;0.70;;;;;;;18.89;37.10;101124.56;5021144;28;20051;-68
2023/06/05 05:11:44;;;;;;;2.60;0.30;;;;;;;18.81;37.21;101129.81;5025703;28;20059;-69
2023/06/05 05:14:13;;;;;;;3.60;0.82;;;;;;;18.76;36.65;101135.88;5024899;28;20548;-70
2023/06/05 05:16:42;;;;;;;4.97;0.65;;;;;;;18.68;37.24;101137.63;5022139;28;20103;-69
2023/06/05 05:19:11;;;;;;;4.00;0.57;;;;;;;18.54;38.71;101133.22;5032392;28;20507;-68
2023/06/05 05:21:41;;;;;;;3.60;0.70;;;;;;;18.46;38.39;101132.31;5007964;28;21232;-68
2023/06/05 05:24:09;;;;;;;1.17;0.65;;;;;;;18.39;37.50;101135.78;5003891;28;20111;-68
2023/06/05 05:26:39;;;;;;;4.47;0.82;;;;;;;18.29;36.87;101137.50;5009603;28;20053;-69
2023/06/05 05:29:08;;;;;;;4.28;0.65;;;;;;;18.21;37.38;101124.38;5006844;28;20077;-68
2023/06/05 05:31:36;;;;;;;2.55;0.60;;;;;;;18.14;38.13;101138.34;5007369;28;20054;-68
2023/06/05 05:34:05;;;;;;;1.98;0.60;;;;;;;18.08;37.88;101133.06;5004414;28;20049;-68
2023/06/05 05:36:36;;;;;;;5.38;1.25;;;;;;;17.91;39.79;101129.47;5008148;28;20050;-67
2023/06/05 05:39:07;;;;;;;1.48;0.57;;;;;;;17.85;39.04;101137.31;5008457;28;20083;-67
2023/06/05 05:41:36;;;;;;;0.88;0.50;;;;;;;17.83;38.32;101152.13;5009462;28;20078;-68
2023/06/05 05:44:05;;;;;;;2.70;0.60;;;;;;;17.79;38.78;101140.72;5009572;28;20049;-67
2023/06/05 05:46:33;;;;;;;3.40;0.70;;;;;;;17.77;37.72;101147.69;5011327;28;20045;-68
2023/06/05 05:49:05;;;;;;;2.17;0.50;;;;;;;17.73;37.79;101152.03;5010846;28;20053;-67
2023/06/05 05:51:33;;;;;;;3.85;0.65;;;;;;;17.64;37.99;101151.97;5005178;28;20049;-69
2023/06/05 05:54:02;;;;;;;1.58;0.35;;;;;;;17.58;38.04;101158.03;5007536;28;20054;-68
2023/06/05 05:56:33;;;;;;;3.40;0.47;;;;;;;17.53;38.17;101153.63;5007727;28;20046;-67
2023/06/05 05:59:04;;;;;;;2.42;0.60;;;;;;;17.51;39.31;101165.81;5006546;28;20049;-68
2023/06/05 06:01:33;;;;;;;1.48;0.60;;;;;;;17.47;38.74;101156.19;5006073;28;20053;-68
2023/06/05 06:04:02;;;;;;;4.32;0.90;;;;;;;17.43;38.27;101162.25;5003402;28;20062;-69
2023/06/05 06:06:30;;;;;;;1.05;0.40;;;;;;;17.37;38.06;101158.75;5003216;28;20136;-68
2023/06/05 06:09:00;;;;;;;3.05;0.60;;;;;;;17.32;38.73;101155.22;5005144;28;20061;-69
2023/06/05 06:11:29;;;;;;;1.48;0.45;;;;;;;17.25;37.54;101156.03;5004576;28;20194;-68
2023/06/05 06:13:59;;;;;;;3.35;0.63;;;;;;;17.19;37.59;101160.34;5007891;28;20037;-69
2023/06/05 06:16:27;;;;;;;1.77;0.57;;;;;;;17.16;37.85;101153.34;5007383;28;20108;-67
2023/06/05 06:18:56;;;;;;;2.47;0.50;;;;;;;17.14;37.75;101149.84;5008133;28;20047;-68
2023/06/05 06:21:25;;;;;;;1.83;0.82;;;;;;;17.14;38.17;101139.38;5028076;28;20470;-68
2023/06/05 06:23:54;;;;;;;2.30;0.60;;;;;;;17.05;38.66;101149.75;5029084;28;20052;-68
2023/06/05 06:26:22;;;;;;;3.03;0.70;;;;;;;17.02;38.97;101150.59;5025960;28;20056;-70
2023/06/05 06:28:51;;;;;;;6.07;0.80;;;;;;;17.00;37.17;101143.63;5025353;28;20053;-69
2023/06/05 06:31:21;;;;;;;5.90;0.77;;;;;;;17.00;37.95;101151.47;5027521;28;20061;-68
2023/06/05 06:33:51;;;;;;;6.05;0.82;;;;;;;17.00;38.76;101151.47;5027523;28;20061;-69
2023/06/05 06:36:21;;;;;;;1.92;0.57;;;;;;;16.96;38.13;101143.56;5024029;28;20049;-68
2023/06/05 06:38:50;;;;;;;1.13;0.40;;;;;;;16.88;37.09;101142.63;5027963;28;20510;-69
2023/06/05 06:41:18;;;;;;;4.22;1.30;;;;;;;16.85;37.36;101136.50;5026341;28;20049;-69
2023/06/05 06:43:47;;;;;;;6.85;0.55;;;;;;;16.83;37.86;101156.50;5027945;28;20067;-69
2023/06/05 06:46:16;;;;;;;2.15;0.50;;;;;;;16.77;39.82;101154.69;5024695;28;20544;-69
2023/06/05 06:48:46;;;;;;;1.55;0.57;;;;;;;16.68;37.68;101154.59;5028117;28;20412;-69
2023/06/05 06:51:15;;;;;;;3.70;0.70;;;;;;;16.67;37.82;101160.66;5023830;28;20089;-69
2023/06/05 06:53:44;;;;;;;5.78;0.70;;;;;;;16.64;37.65;101150.19;5026339;28;20052;-68
2023/06/05 06:56:15;;;;;;;1.10;0.57;;;;;;;16.61;37.55;101148.41;5023889;28;20054;-69
2023/06/05 06:58:44;;;;;;;2.00;0.77;;;;;;;16.61;42.28;101152.78;5027434;28;20128;-70
2023/06/05 07:01:13;;;;;;;4.30;0.65;;;;;;;16.58;40.61;101142.25;5026818;28;20042;-69
2023/06/05 07:03:42;;;;;;;2.55;0.65;;;;;;;16.55;39.60;101148.34;5029575;28;20055;-69
2023/06/05 07:06:14;;;;;;;1.90;0.35;;;;;;;16.51;39.80;101146.53;5026429;28;20052;-68
2023/06/05 07:08:45;;;;;;;0.55;0.35;;;;;;;16.48;38.28;101149.13;5027430;28;20053;-68
2023/06/05 07:11:13;;;;;;;4.60;0.80;;;;;;;16.45;39.12;101155.19;5025999;28;20049;-68
2023/06/05 07:13:42;;;;;;;6.72;0.40;;;;;;;16.42;40.31;101152.53;5024486;28;20049;-69
2023/06/05 07:16:10;;;;;;;2.00;0.55;;;;;;;16.40;39.75;101149.06;5025479;28;20049;-69
2023/06/05 07:18:40;;;;;;;5.50;0.63;;;;;;;16.35;36.37;101150.69;5023587;28;20104;-70
2023/06/05 07:21:12;;;;;;;3.20;0.98;;;;;;;16.36;39.26;101155.09;5013289;28;20048;-69
2023/06/05 07:23:44;;;;;;;1.60;0.85;;;;;;;16.37;40.25;101149.00;5007113;28;20049;-68
2023/06/05 07:26:12;;;;;;;2.78;0.70;;;;;;;16.31;37.89;101135.88;5008188;28;20057;-68
2023/06/05 07:28:42;;;;;;;3.03;0.47;;;;;;;16.25;38.54;101147.13;5005527;28;20062;-68
2023/06/05 07:31:11;;;;;;;1.73;0.60;;;;;;;16.20;38.92;101145.31;5003972;28;20045;-68
2023/06/05 07:33:41;;;;;;;5.07;0.52;;;;;;;16.14;38.44;101140.88;5004834;28;20050;-67
2023/06/05 07:36:10;;;;;;;2.78;0.50;;;;;;;16.06;39.07;101138.19;5009741;28;20145;-68
2023/06/05 07:38:39;;;;;;;4.70;0.88;;;;;;;16.05;37.90;101141.63;5008300;28;20061;-69
2023/06/05 07:41:15;;;;;;;0.63;0.30;;;;;;;16.01;37.65;101139.84;5006180;28;20085;-68
2023/06/05 07:43:43;;;;;;;2.75;0.40;;;;;;;15.97;37.68;101143.28;5006472;28;20046;-68
2023/06/05 07:46:12;;;;;;;1.55;0.20;;;;;;;15.93;36.46;101135.38;5007722;28;20050;-68
2023/06/05 07:48:40;;;;;;;1.98;0.57;;;;;;;15.92;36.12;101144.97;5004589;28;20045;-68
2023/06/05 07:51:09;;;;;;;3.05;0.55;;;;;;;15.91;36.18;101153.63;5007852;28;20131;-68
2023/06/05 07:53:37;;;;;;;4.13;0.68;;;;;;;15.90;36.62;101151.88;5004141;28;20104;-68
2023/06/05 07:56:06;;;;;;;1.85;0.68;;;;;;;15.88;36.12;101150.97;5007251;28;20331;-68
2023/06/05 07:58:37;;;;;;;2.05;0.70;;;;;;;15.84;35.70;101146.56;5003094;28;20054;-69
2023/06/05 08:01:06;;;;;;;9.18;0.77;;;;;;;15.80;38.54;101144.75;5004821;28;20073;-68
2023/06/05 08:03:35;;;;;;;1.58;0.63;;;;;;;15.76;37.15;101150.78;5005582;28;20042;-68
2023/06/05 08:06:04;;;;;;;7.40;0.80;;;;;;;15.73;36.37;101145.53;5006344;28;20053;-68
2023/06/05 08:08:32;;;;;;;0.75;0.45;;;;;;;15.69;37.94;101153.28;5005108;28;20054;-68
2023/06/05 08:11:00;;;;;;;1.00;0.43;;;;;;;15.66;37.13;101148.00;5003653;28;20092;-68
2023/06/05 08:13:29;;;;;;;1.73;0.50;;;;;;;15.63;36.37;101150.59;5002982;28;20049;-68
2023/06/05 08:16:00;;;;;;;3.72;0.65;;;;;;;15.63;36.39;101155.81;4999735;28;20073;-67
2023/06/05 08:18:28;;;;;;;1.25;0.60;;;;;;;15.63;35.83;101152.31;5006998;28;20054;-67
2023/06/05 08:20:57;;;;;;;1.38;0.50;;;;;;;15.60;38.27;101144.44;5015019;28;20140;-68
2023/06/05 08:23:26;;;;;;;2.70;0.75;;;;;;;15.61;37.58;101148.81;5023802;28;20500;-67
2023/06/05 08:25:55;;;;;;;0.88;0.60;;;;;;;15.60;36.56;101153.16;5024231;28;20050;-67
2023/06/05 08:28:23;;;;;;;1.42;0.50;;;;;;;15.59;36.41;101147.91;5021218;28;20045;-67
2023/06/05 08:30:53;;;;;;;3.03;0.50;;;;;;;15.52;36.67;101133.88;5024935;28;20144;-68
2023/06/05 08:33:23;;;;;;;1.35;0.45;;;;;;;15.59;38.24;101150.50;5028290;28;20128;-67
2023/06/05 08:35:52;;;;;;;2.88;0.70;;;;;;;15.58;38.24;101154.84;5025531;28;20111;-68
2023/06/05 08:38:22;;;;;;;0.93;0.60;;;;;;;15.58;36.57;101154.00;5026300;28;20061;-68
2023/06/05 08:40:58;;;;;;;5.15;1.23;;;;;;;15.58;35.98;101160.06;5023061;28;20133;-68
2023/06/05 08:43:27;;;;;;;0.80;0.30;;;;;;;15.55;36.67;101161.75;5025137;28;20056;-67
2023/06/05 08:45:58;;;;;;;1.33;0.63;;;;;;;15.51;39.06;101163.44;5026732;28;20045;-68
2023/06/05 08:48:32;;;;;;;0.98;0.45;;;;;;;15.49;40.69;101149.50;5023329;28;20047;-67
2023/06/05 08:51:01;;;;;;;1.75;0.57;;;;;;;15.41;36.94;101158.91;5030502;28;20100;-68
2023/06/05 08:53:34;;;;;;;6.13;0.50;;;;;;;15.38;35.68;101156.28;5027471;28;20046;-68
2023/06/05 08:56:03;;;;;;;5.22;0.50;;;;;;;15.38;35.68;101151.06;5025360;28;20046;-68
2023/06/05 08:58:40;;;;;;;2.80;0.60;;;;;;;15.38;38.25;101151.06;5028961;28;20056;-68
2023/06/05 09:01:08;;;;;;;0.95;0.47;;;;;;;15.37;40.05;101154.50;5026829;28;20059;-68
2023/06/05 09:03:39;;;;;;;1.83;0.50;;;;;;;15.29;40.47;101157.88;5025053;28;20049;-67
2023/06/05 09:06:07;;;;;;;0.75;0.30;;;;;;;15.23;38.22;101163.00;5029137;28;20053;-67
2023/06/05 09:08:45;;;;;;;3.25;0.60;;;;;;;15.21;36.97;101151.66;5028629;28;20495;-69
2023/06/05 09:11:25;;;;;;;1.55;0.63;;;;;;;15.20;39.83;101157.72;5029894;28;20045;-68
2023/06/05 09:13:56;;;;;;;1.85;0.32;;;;;;;15.19;37.35;101157.72;5028345;28;20535;-67
2023/06/05 09:16:34;;;;;;;5.17;0.80;;;;;;;15.17;35.39;101155.06;5028792;28;20424;-68
2023/06/05 09:19:05;;;;;;;0.47;0.30;;;;;;;15.17;35.93;101147.25;5025575;28;20057;-68
2023/06/05 09:21:34;;;;;;;2.60;0.30;;;;;;;15.16;40.07;101153.28;5013228;28;20054;-68
2023/06/05 09:24:18;;;;;;;1.55;0.40;;;;;;;15.16;38.21;101155.91;5001997;28;20104;-68
2023/06/05 09:26:53;;;;;;;0.75;0.43;;;;;;;15.13;34.44;101150.66;5017216;28;20034;-67
2023/06/05 09:29:27;;;;;;;7.50;0.50;;;;;;;15.16;38.98;101160.25;5009921;28;20053;-67
2023/06/05 09:31:57;;;;;;;1.45;0.47;;;;;;;15.14;37.89;101151.50;5009891;28;20042;-68
2023/06/05 09:34:29;;;;;;;0.95;0.30;;;;;;;15.06;39.10;101164.41;4998520;28;20057;-67
2023/06/05 09:36:59;;;;;;;1.40;0.68;;;;;;;15.03;39.25;101156.56;5006705;28;20046;-67
2023/06/05 09:39:28;;;;;;;2.25;0.40;;;;;;;14.99;36.18;101154.75;5008778;28;20061;-68
2023/06/05 09:41:58;;;;;;;1.10;0.40;;;;;;;15.01;37.01;101155.66;5007294;28;20034;-67
2023/06/05 09:44:27;;;;;;;3.22;0.60;;;;;;;15.00;38.39;101156.47;5008252;28;20050;-67
2023/06/05 09:47:01;;;;;;;3.20;0.40;;;;;;;14.93;35.63;101160.72;5011175;28;20053;-67
2023/06/05 09:49:33;;;;;;;3.28;0.60;;;;;;;14.92;37.07;101163.31;5010160;28;20050;-67
2023/06/05 09:52:02;;;;;;;4.00;0.60;;;;;;;14.87;36.43;101156.28;5006871;28;20108;-67
2023/06/05 09:54:32;;;;;;;2.65;0.35;;;;;;;14.85;35.41;101159.72;5005964;28;20092;-67
2023/06/05 09:57:02;;;;;;;1.83;0.65;;;;;;;14.84;38.04;101152.72;5006287;28;20514;-67
2023/06/05 09:59:46;;;;;;;0.63;0.30;;;;;;;14.82;38.43;101159.63;5008245;28;20137;-67
2023/06/05 10:02:17;;;;;;;3.72;0.65;;;;;;;14.79;35.05;101160.44;5006545;28;20508;-67
2023/06/05 10:04:49;;;;;;;1.65;0.40;;;;;;;14.79;36.24;101157.84;5009239;28;20107;-67
2023/06/05 10:07:17;;;;;;;;;;;;;;;14.78;35.73;101158.72;5005197;28;20506;-67
2023/06/05 10:09:46;;;;;;;1.00;0.65;;;;;;;14.76;37.68;101154.31;5007316;28;19929;-67
2023/06/05 10:12:15;;;;;;;0.98;0.22;;;;;;;14.69;38.08;101153.34;5003658;28;20132;-68
2023/06/05 10:14:44;;;;;;;0.85;0.38;;;;;;;14.63;39.73;101159.28;5007784;28;20065;-68
2023/06/05 10:17:15;;;;;;;1.02;0.47;;;;;;;14.60;38.12;101150.56;5007497;28;20605;-68
2023/06/05 10:19:44;;;;;;;1.25;0.40;;;;;;;14.56;35.08;101156.53;5008826;28;20092;-67
2023/06/05 10:22:15;;;;;;;0.40;0.25;;;;;;;14.53;34.92;101143.44;5008872;28;20050;-68
2023/06/05 10:24:51;;;;;;;0.95;0.43;;;;;;;14.50;34.78;101159.88;5010185;28;20104;-68
2023/06/05 10:27:50;;;;;;;1.25;0.45;;;;;;;14.49;38.27;101152.91;5010040;28;20056;-68
2023/06/05 10:30:48;;;;;;;0.95;0.40;;;;;;;14.43;41.55;101157.97;5007685;28;20397;-68
2023/06/05 10:33:45;;;;;;;1.83;0.38;;;;;;;14.37;37.01;101150.06;5004721;28;20492;-68
2023/06/05 10:36:24;;;;;;;3.47;0.60;;;;;;;14.27;36.80;101148.09;5006105;28;20496;-66
2023/06/05 10:38:55;;;;;;;1.23;0.73;;;;;;;14.23;39.50;101153.25;5007494;28;20048;-67
2023/06/05 10:41:25;;;;;;;2.53;0.45;;;;;;;14.22;38.44;101155.81;5000178;28;20076;-68
2023/06/05 10:43:55;;;;;;;0.90;0.40;;;;;;;14.20;39.97;101154.91;5007141;28;20050;-67
2023/06/05 10:46:32;;;;;;;1.92;0.60;;;;;;;14.12;41.37;101153.88;5007709;28;20146;-67
2023/06/05 10:49:19;;;;;;;1.20;0.40;;;;;;;14.05;38.91;101158.06;5002248;28;20710;-68
2023/06/05 10:51:49;;;;;;;0.65;0.38;;;;;;;13.94;38.80;101157.81;5005467;28;20049;-68
2023/06/05 10:55:05;;;;;;;1.48;0.50;;;;;;;13.89;37.72;101154.25;5005232;28;20049;-67
2023/06/05 10:58:24;;;;;;;3.92;0.80;;;;;;;13.88;38.90;101156.81;4958354;28;20072;-66
2023/06/05 11:01:18;;;;;;;1.10;0.22;;;;;;;13.84;39.22;101158.47;4983003;28;20053;-66
2023/06/05 11:03:57;;;;;;;1.63;0.32;;;;;;;13.81;37.22;101163.59;4982317;28;20046;-67
2023/06/05 11:06:26;;;;;;;0.77;0.30;;;;;;;13.75;36.87;101153.94;4998262;28;20129;-67
2023/06/05 11:09:14;;;;;;;1.88;0.50;;;;;;;13.73;40.29;101159.97;5004976;28;20053;-67
2023/06/05 11:12:03;;;;;;;0.95;0.32;;;;;;;13.67;40.18;101157.19;5006925;28;20080;-68
2023/06/05 11:14:48;;;;;;;0.25;0.25;;;;;;;13.66;41.11;101153.72;5001934;28;20088;-67
2023/06/05 11:17:30;;;;;;;0.55;0.32;;;;;;;13.64;36.13;101151.94;5007286;28;20045;-67
2023/06/05 11:19:58;;;;;;;1.92;0.60;;;;;;;13.64;36.08;101149.34;5013622;28;20053;-68
2023/06/05 11:22:27;;;;;;;1.63;0.52;;;;;;;13.64;34.85;101149.34;5005753;28;20053;-67
2023/06/05 11:25:31;;;;;;;0.65;0.32;;;;;;;13.68;36.63;101153.78;5008221;28;20085;-67
2023/06/05 11:28:04;;;;;;;0.90;0.30;;;;;;;13.65;38.33;101146.75;5001242;28;20054;-67
2023/06/05 11:30:33;;;;;;;0.68;0.38;;;;;;;13.64;37.68;101145.00;5006293;28;20665;-67
2023/06/05 11:33:09;;;;;;;0.73;0.38;;;;;;;13.62;39.26;101149.28;5002260;28;20559;-67
2023/06/05 11:35:38;;;;;;;0.52;0.40;;;;;;;13.56;38.72;101137.03;5003772;28;20049;-67
2023/06/05 11:38:10;;;;;;;1.95;0.80;;;;;;;13.55;37.25;101144.81;5003378;28;20050;-67
2023/06/05 11:40:39;;;;;;;1.17;0.32;;;;;;;13.57;37.86;101148.31;5004676;28;20042;-68
2023/06/05 11:43:10;;;;;;;1.10;0.50;;;;;;;13.57;38.45;101143.13;5004098;28;20801;-67
2023/06/05 11:45:40;;;;;;;2.40;0.73;;;;;;;13.58;37.74;101144.88;5005204;28;20057;-67